createdAt,value
2022-12-14T00:01:54.352Z,10.52
2022-12-14T00:04:22.060Z,10.77
2022-12-14T00:06:49.782Z,10.93
2022-12-14T00:09:19.156Z,10.77
2022-12-14T00:11:46.912Z,10.93
2022-12-14T00:14:14.966Z,10.35
2022-12-14T00:16:42.611Z,9.82
2022-12-14T00:19:11.759Z,10.05
2022-12-14T00:21:39.456Z,11.80
2022-12-14T00:24:07.682Z,11.10
2022-12-14T00:26:35.462Z,11.43
2022-12-14T00:29:03.316Z,11.68
2022-12-14T00:31:32.335Z,9.82
2022-12-14T00:34:01.495Z,10.15
2022-12-14T00:36:31.705Z,9.27
2022-12-14T00:38:59.781Z,9.40
2022-12-14T00:41:27.616Z,9.90
2022-12-14T00:43:55.480Z,9.18
2022-12-14T00:46:23.297Z,9.38
2022-12-14T00:48:51.476Z,9.90
2022-12-14T00:51:19.516Z,8.85
2022-12-14T00:53:47.549Z,8.90
2022-12-14T00:56:15.635Z,7.97
2022-12-14T00:58:43.437Z,9.85
2022-12-14T01:01:13.916Z,10.07
2022-12-14T01:03:42.752Z,8.65
2022-12-14T01:06:22.748Z,10.30
2022-12-14T01:08:50.543Z,10.73
2022-12-14T01:11:19.510Z,7.97
2022-12-14T01:13:49.345Z,8.18
2022-12-14T01:16:18.302Z,8.00
2022-12-14T01:18:46.048Z,8.55
2022-12-14T01:21:16.799Z,8.98
2022-12-14T01:23:46.660Z,8.70
2022-12-14T01:26:16.810Z,9.55
2022-12-14T01:28:46.527Z,7.95
2022-12-14T01:31:20.838Z,8.48
2022-12-14T01:33:49.142Z,7.50
2022-12-14T01:36:20.183Z,7.10
2022-12-14T01:38:52.126Z,8.10
2022-12-14T01:41:27.485Z,7.85
2022-12-14T01:43:57.203Z,7.43
2022-12-14T01:46:56.217Z,7.00
2022-12-14T01:49:49.044Z,8.68
2022-12-14T01:52:40.536Z,8.18
2022-12-14T01:55:16.909Z,8.52
2022-12-14T01:57:52.268Z,8.05
2022-12-14T02:00:21.300Z,8.10
2022-12-14T02:03:06.607Z,8.57
2022-12-14T02:05:36.622Z,8.60
2022-12-14T02:08:06.409Z,7.50
2022-12-14T02:10:35.091Z,7.78
2022-12-14T02:13:18.116Z,8.73
2022-12-14T02:15:46.924Z,7.40
2022-12-14T02:18:22.715Z,7.47
2022-12-14T02:21:25.183Z,7.00
2022-12-14T02:24:13.309Z,6.75
2022-12-14T02:27:13.713Z,6.72
2022-12-14T02:30:03.582Z,7.10
2022-12-14T02:32:39.009Z,7.32
2022-12-14T02:35:52.143Z,6.15
2022-12-14T02:38:22.737Z,5.70
2022-12-14T02:41:06.935Z,6.22
2022-12-14T02:44:00.445Z,6.05
2022-12-14T02:46:52.128Z,5.75
2022-12-14T02:49:19.805Z,5.38
2022-12-14T02:51:58.302Z,5.45
2022-12-14T02:54:34.940Z,4.65
2022-12-14T02:57:22.009Z,4.13
2022-12-14T02:59:54.766Z,4.30
2022-12-14T03:02:23.772Z,4.20
2022-12-14T03:04:51.602Z,3.70
2022-12-14T03:07:48.839Z,4.05
2022-12-14T03:10:48.690Z,4.00
2022-12-14T03:13:25.661Z,3.40
2022-12-14T03:16:22.537Z,4.20
2022-12-14T03:19:04.861Z,3.78
2022-12-14T03:21:37.980Z,4.68
2022-12-14T03:24:15.407Z,5.03
2022-12-14T03:26:52.638Z,5.88
2022-12-14T03:29:29.722Z,5.82
2022-12-14T03:32:02.645Z,5.18
2022-12-14T03:34:36.350Z,4.78
2022-12-14T03:37:16.220Z,4.18
2022-12-14T03:39:45.313Z,4.03
2022-12-14T03:42:26.016Z,3.97
2022-12-14T03:44:56.898Z,5.00
2022-12-14T03:47:58.616Z,3.38
2022-12-14T03:50:26.387Z,3.00
2022-12-14T03:53:02.025Z,2.97
2022-12-14T03:56:07.321Z,2.35
2022-12-14T03:58:57.467Z,1.98
2022-12-14T04:01:43.754Z,2.20
2022-12-14T04:04:19.484Z,3.20
2022-12-14T04:07:11.614Z,2.17
2022-12-14T04:09:50.486Z,1.88
2022-12-14T04:12:49.461Z,2.60
2022-12-14T04:15:54.420Z,1.98
2022-12-14T04:18:47.886Z,2.15
2022-12-14T04:21:32.286Z,1.50
2022-12-14T04:24:22.470Z,1.98
2022-12-14T04:26:59.511Z,4.30
2022-12-14T04:29:49.203Z,7.65
2022-12-14T04:32:41.709Z,9.30
2022-12-14T04:35:14.158Z,8.10
2022-12-14T04:37:49.138Z,6.05
2022-12-14T04:40:49.750Z,5.00
2022-12-14T04:43:21.028Z,5.13
2022-12-14T04:46:20.783Z,4.82
2022-12-14T04:49:10.013Z,3.40
2022-12-14T04:51:48.741Z,4.47
2022-12-14T04:54:26.080Z,4.43
2022-12-14T04:56:57.925Z,3.25
2022-12-14T04:59:26.443Z,3.58
2022-12-14T05:02:22.902Z,5.40
2022-12-14T05:05:04.642Z,3.55
2022-12-14T05:07:53.867Z,3.75
2022-12-14T05:10:41.264Z,3.35
2022-12-14T05:13:32.342Z,3.13
2022-12-14T05:16:00.727Z,3.83
2022-12-14T05:18:28.692Z,3.38
2022-12-14T05:20:56.312Z,3.60
2022-12-14T05:23:24.193Z,4.43
2022-12-14T05:25:52.272Z,3.70
2022-12-14T05:28:20.169Z,3.10
2022-12-14T05:30:48.925Z,3.72
2022-12-14T05:33:22.175Z,2.35
2022-12-14T05:35:50.102Z,2.72
2022-12-14T05:38:17.844Z,3.30
2022-12-14T05:40:45.626Z,3.05
2022-12-14T05:43:13.702Z,4.75
2022-12-14T05:45:41.359Z,3.55
2022-12-14T05:48:09.150Z,2.47
2022-12-14T05:50:37.014Z,4.95
2022-12-14T05:53:04.716Z,4.00
2022-12-14T05:55:32.502Z,4.10
2022-12-14T05:58:00.227Z,3.55
2022-12-14T06:00:27.944Z,3.30
2022-12-14T06:02:55.849Z,3.45
2022-12-14T06:05:23.707Z,2.92
2022-12-14T06:07:51.623Z,3.55
2022-12-14T06:10:19.381Z,3.17
2022-12-14T06:12:47.015Z,2.42
2022-12-14T06:15:15.125Z,3.25
2022-12-14T06:17:47.003Z,2.78
2022-12-14T06:20:15.061Z,3.85
2022-12-14T06:22:47.374Z,3.67
2022-12-14T06:25:15.950Z,6.65
2022-12-14T06:27:43.913Z,5.82
2022-12-14T06:30:12.474Z,5.32
2022-12-14T06:32:40.273Z,4.43
2022-12-14T06:35:08.751Z,4.55
2022-12-14T06:37:36.549Z,5.45
2022-12-14T06:40:04.799Z,4.25
2022-12-14T06:42:32.700Z,3.97
2022-12-14T06:45:00.629Z,3.40
2022-12-14T06:47:28.670Z,2.90
2022-12-14T06:49:56.753Z,3.65
2022-12-14T06:52:27.191Z,2.33
2022-12-14T06:54:55.667Z,2.00
2022-12-14T06:57:23.395Z,3.38
2022-12-14T06:59:51.321Z,3.90
2022-12-14T07:02:21.890Z,2.60
2022-12-14T07:04:49.727Z,2.47
2022-12-14T07:07:17.390Z,2.08
2022-12-14T07:09:45.395Z,2.55
2022-12-14T07:12:13.359Z,3.92
2022-12-14T07:14:41.156Z,4.32
2022-12-14T07:17:08.862Z,3.78
2022-12-14T07:19:36.833Z,3.92
2022-12-14T07:22:05.065Z,4.57
2022-12-14T07:24:32.886Z,3.42
2022-12-14T07:27:00.832Z,4.53
2022-12-14T07:29:34.369Z,14.82
2022-12-14T07:32:02.902Z,5.82
2022-12-14T07:34:30.596Z,8.45
2022-12-14T07:36:58.246Z,9.20
2022-12-14T07:39:26.464Z,9.48
2022-12-14T07:41:54.717Z,8.10
2022-12-14T07:44:23.037Z,9.05
2022-12-14T07:46:50.926Z,11.02
2022-12-14T07:49:18.908Z,7.38
2022-12-14T07:51:46.947Z,7.15
2022-12-14T07:54:15.305Z,7.97
2022-12-14T07:56:44.039Z,7.10
2022-12-14T07:59:16.604Z,7.20
2022-12-14T08:01:44.989Z,10.15
2022-12-14T08:04:18.824Z,7.40
2022-12-14T08:06:48.080Z,7.10
2022-12-14T08:09:17.092Z,6.88
2022-12-14T08:11:45.205Z,9.10
2022-12-14T08:14:17.557Z,7.70
2022-12-14T08:16:46.832Z,7.63
2022-12-14T08:19:15.108Z,7.68
2022-12-14T08:21:43.976Z,6.47
2022-12-14T08:24:13.378Z,6.70
2022-12-14T08:26:41.132Z,8.13
2022-12-14T08:29:09.491Z,8.82
2022-12-14T08:31:37.260Z,8.77
2022-12-14T08:34:05.341Z,26.27
2022-12-14T08:36:34.789Z,19.30
2022-12-14T08:39:06.217Z,15.57
2022-12-14T08:41:35.154Z,11.35
2022-12-14T08:44:04.071Z,9.90
2022-12-14T08:46:33.917Z,11.10
2022-12-14T08:49:01.935Z,7.55
2022-12-14T08:51:30.158Z,7.70
2022-12-14T08:53:58.548Z,9.77
2022-12-14T08:56:29.797Z,8.88
2022-12-14T08:58:57.674Z,10.68
2022-12-14T09:01:34.015Z,8.82
2022-12-14T09:04:05.607Z,6.43
2022-12-14T09:06:35.766Z,6.05
2022-12-14T09:09:16.150Z,10.07
2022-12-14T09:11:45.713Z,7.22
2022-12-14T09:14:13.508Z,6.28
2022-12-14T09:16:41.606Z,6.13
2022-12-14T09:19:09.720Z,5.22
2022-12-14T09:21:38.841Z,6.40
2022-12-14T09:24:07.996Z,6.68
2022-12-14T09:26:36.325Z,5.30
2022-12-14T09:29:04.529Z,6.82
2022-12-14T09:31:32.497Z,5.15
2022-12-14T09:34:00.486Z,4.78
2022-12-14T09:36:28.868Z,6.95
2022-12-14T09:38:58.063Z,6.75
2022-12-14T09:41:35.554Z,4.82
2022-12-14T09:44:31.299Z,6.07
2022-12-14T09:47:08.027Z,4.80
2022-12-14T09:49:43.717Z,5.35
2022-12-14T09:52:17.221Z,6.40
2022-12-14T09:54:49.919Z,7.68
2022-12-14T09:57:27.261Z,10.75
2022-12-14T09:59:55.803Z,9.30
2022-12-14T10:02:31.953Z,16.55
2022-12-14T10:05:38.296Z,13.35
2022-12-14T10:08:11.561Z,13.25
2022-12-14T10:11:07.820Z,15.00
2022-12-14T10:13:51.403Z,13.00
2022-12-14T10:16:21.998Z,8.77
2022-12-14T10:19:01.875Z,6.90
2022-12-14T10:21:46.793Z,6.88
2022-12-14T10:24:27.625Z,5.38
2022-12-14T10:26:56.092Z,7.00
2022-12-14T10:29:45.179Z,8.10
2022-12-14T10:32:33.476Z,8.60
2022-12-14T10:35:16.014Z,4.63
2022-12-14T10:37:46.839Z,5.13
2022-12-14T10:40:35.217Z,5.80
2022-12-14T10:43:19.078Z,4.90
2022-12-14T10:45:56.858Z,6.47
2022-12-14T10:48:43.505Z,5.63
2022-12-14T10:51:34.361Z,6.00
2022-12-14T10:54:26.841Z,4.15
2022-12-14T10:56:55.361Z,6.50
2022-12-14T10:59:27.823Z,5.90
2022-12-14T11:02:09.234Z,5.93
2022-12-14T11:04:44.889Z,5.68
2022-12-14T11:07:15.857Z,6.88
2022-12-14T11:09:44.704Z,6.40
2022-12-14T11:12:15.688Z,8.65
2022-12-14T11:15:04.899Z,7.80
2022-12-14T11:17:39.664Z,10.52
2022-12-14T11:20:19.598Z,6.30
2022-12-14T11:22:54.484Z,9.55
2022-12-14T11:25:43.606Z,7.55
2022-12-14T11:28:30.053Z,6.15
2022-12-14T11:31:12.329Z,7.70
2022-12-14T11:33:41.792Z,6.47
2022-12-14T11:36:10.236Z,5.22
2022-12-14T11:38:38.016Z,4.63
2022-12-14T11:41:11.574Z,6.78
2022-12-14T11:43:40.230Z,9.43
2022-12-14T11:46:08.237Z,6.15
2022-12-14T11:48:38.588Z,6.43
2022-12-14T11:51:12.474Z,5.32
2022-12-14T11:53:41.293Z,4.70
2022-12-14T11:56:15.905Z,5.65
2022-12-14T11:58:53.299Z,4.53
2022-12-14T12:03:59.391Z,5.32
2022-12-14T12:06:30.613Z,9.38
2022-12-14T12:09:14.235Z,6.18
2022-12-14T12:11:45.490Z,6.85
2022-12-14T12:14:35.385Z,6.43
2022-12-14T12:17:19.110Z,6.38
2022-12-14T12:19:54.947Z,5.78
2022-12-14T12:22:23.010Z,5.85
2022-12-14T12:28:10.419Z,8.00
2022-12-14T12:30:43.450Z,7.78
2022-12-14T12:33:26.045Z,8.68
2022-12-14T12:35:59.955Z,6.50
2022-12-14T12:38:56.975Z,11.02
2022-12-14T12:42:03.619Z,7.43
2022-12-14T12:44:38.922Z,7.03
2022-12-14T12:47:26.039Z,8.35
2022-12-14T12:50:13.394Z,6.45
2022-12-14T12:52:50.421Z,5.72
2022-12-14T12:57:53.646Z,8.68
2022-12-14T13:00:27.308Z,9.32
2022-12-14T13:03:28.845Z,6.53
2022-12-14T13:06:05.212Z,9.75
2022-12-14T13:08:39.432Z,12.70
2022-12-14T13:11:26.212Z,9.95
2022-12-14T13:14:13.598Z,8.32
2022-12-14T13:16:42.332Z,11.77
2022-12-14T13:19:49.805Z,9.98
2022-12-14T13:22:17.405Z,10.75
2022-12-14T13:24:51.891Z,12.77
2022-12-14T13:27:26.241Z,11.05
2022-12-14T13:30:06.167Z,11.50
2022-12-14T13:32:45.083Z,10.75
2022-12-14T13:36:00.746Z,9.75
2022-12-14T13:38:50.851Z,8.85
2022-12-14T13:41:35.280Z,9.57
2022-12-14T13:44:35.744Z,5.88
2022-12-14T13:47:16.005Z,6.70
2022-12-14T13:50:11.617Z,8.00
2022-12-14T13:52:46.885Z,5.43
2022-12-14T13:55:36.568Z,5.70
2022-12-14T13:58:21.969Z,5.05
2022-12-14T14:00:53.445Z,4.72
2022-12-14T14:03:37.651Z,5.95
2022-12-14T14:06:12.793Z,5.13
2022-12-14T14:08:43.078Z,7.38
2022-12-14T14:11:39.187Z,5.70
2022-12-14T14:14:25.115Z,4.15
2022-12-14T14:17:27.129Z,6.35
2022-12-14T14:19:57.312Z,7.47
2022-12-14T14:22:29.780Z,6.30
2022-12-14T14:24:59.539Z,5.45
2022-12-14T14:27:39.642Z,4.10
2022-12-14T14:30:41.554Z,6.18
2022-12-14T14:33:47.670Z,5.47
2022-12-14T14:36:38.697Z,5.10
2022-12-14T14:39:55.100Z,9.88
2022-12-14T14:42:25.043Z,15.55
2022-12-14T14:45:05.437Z,10.93
2022-12-14T14:47:40.339Z,14.77
2022-12-14T14:50:14.277Z,10.70
2022-12-14T14:52:41.972Z,28.20
2022-12-14T14:58:26.895Z,32.97
2022-12-14T15:01:03.626Z,40.95
2022-12-14T15:03:40.449Z,28.42
2022-12-14T15:06:22.579Z,20.92
2022-12-14T15:09:06.135Z,20.40
2022-12-14T15:11:51.420Z,20.17
2022-12-14T15:14:48.820Z,10.90
2022-12-14T15:17:19.869Z,8.80
2022-12-14T15:19:52.739Z,8.35
2022-12-14T15:22:27.712Z,8.68
2022-12-14T15:24:58.877Z,8.00
2022-12-14T15:27:28.220Z,8.13
2022-12-14T15:30:04.748Z,22.80
2022-12-14T15:32:33.471Z,20.60
2022-12-14T15:35:14.682Z,12.10
2022-12-14T15:37:50.646Z,11.25
2022-12-14T15:40:23.400Z,9.23
2022-12-14T15:42:52.549Z,18.65
2022-12-14T15:45:25.713Z,14.13
2022-12-14T15:47:54.480Z,18.13
2022-12-14T15:50:34.256Z,13.88
2022-12-14T15:53:13.385Z,10.23
2022-12-14T15:55:42.964Z,8.52
2022-12-14T15:58:17.803Z,6.60
2022-12-14T16:00:50.218Z,6.25
2022-12-14T16:03:28.050Z,6.93
2022-12-14T16:05:56.995Z,5.38
2022-12-14T16:08:26.424Z,4.15
2022-12-14T16:10:57.130Z,4.72
2022-12-14T16:13:36.016Z,3.70
2022-12-14T16:16:12.926Z,5.82
2022-12-14T16:18:50.769Z,5.32
2022-12-14T16:21:37.204Z,4.40
2022-12-14T16:24:23.412Z,6.22
2022-12-14T16:26:57.859Z,5.57
2022-12-14T16:29:28.992Z,4.22
2022-12-14T16:32:16.792Z,6.90
2022-12-14T16:37:34.246Z,4.28
2022-12-14T16:40:03.927Z,4.03
2022-12-14T16:42:32.286Z,4.95
2022-12-14T16:45:00.426Z,4.28
2022-12-14T16:48:01.869Z,7.35
2022-12-14T16:56:13.622Z,7.43
2022-12-14T16:58:41.548Z,9.32
2022-12-14T17:01:09.833Z,7.65
2022-12-14T17:03:38.341Z,6.90
2022-12-14T17:06:07.740Z,6.60
2022-12-14T17:08:35.518Z,6.20
2022-12-14T17:11:03.541Z,8.20
2022-12-14T17:13:31.955Z,10.32
2022-12-14T17:16:03.334Z,8.55
2022-12-14T17:18:39.605Z,10.35
2022-12-14T17:21:08.941Z,8.83
2022-12-14T17:23:40.785Z,7.40
2022-12-14T17:26:18.615Z,7.50
2022-12-14T17:28:46.363Z,10.88
2022-12-14T17:31:18.169Z,7.70
2022-12-14T17:33:46.135Z,6.97
2022-12-14T17:36:14.101Z,19.60
2022-12-14T17:38:41.782Z,21.80
2022-12-14T17:41:18.919Z,17.08
2022-12-14T17:46:23.647Z,11.73
2022-12-14T17:48:51.863Z,8.80
2022-12-14T17:51:26.106Z,7.13
2022-12-14T17:53:55.219Z,9.73
2022-12-14T17:56:23.597Z,10.35
2022-12-14T17:58:51.837Z,9.32
2022-12-14T18:01:23.935Z,10.80
2022-12-14T18:03:52.318Z,9.32
2022-12-14T18:06:20.123Z,6.75
2022-12-14T18:08:49.149Z,5.63
2022-12-14T18:11:20.729Z,7.50
2022-12-14T18:13:49.163Z,6.18
2022-12-14T18:16:21.000Z,6.68
2022-12-14T18:18:49.484Z,15.82
2022-12-14T18:21:20.282Z,31.98
2022-12-14T18:23:50.570Z,40.47
2022-12-14T18:26:22.744Z,33.20
2022-12-14T18:28:53.185Z,32.15
2022-12-14T18:31:26.506Z,32.45
2022-12-14T18:33:54.815Z,26.65
2022-12-14T18:36:23.140Z,24.85
2022-12-14T18:38:52.251Z,24.00
2022-12-14T18:41:24.787Z,21.30
2022-12-14T18:43:54.721Z,14.02
2022-12-14T18:46:25.293Z,12.50
2022-12-14T18:48:54.154Z,12.68
2022-12-14T18:51:24.250Z,13.57
2022-12-14T18:53:55.573Z,10.13
2022-12-14T18:56:25.624Z,13.30
2022-12-14T18:58:53.561Z,9.40
2022-12-14T19:01:23.988Z,9.35
2022-12-14T19:03:52.156Z,10.65
2022-12-14T19:09:14.907Z,11.85
2022-12-14T19:11:43.447Z,12.85
2022-12-14T19:14:11.705Z,11.65
2022-12-14T19:16:39.663Z,12.98
2022-12-14T19:19:07.951Z,13.45
2022-12-14T19:21:36.157Z,12.90
2022-12-14T19:24:04.617Z,15.57
2022-12-14T19:26:32.599Z,15.27
2022-12-14T19:29:01.720Z,16.02
2022-12-14T19:31:29.596Z,19.35
2022-12-14T19:33:57.434Z,22.55
2022-12-14T19:36:26.191Z,27.92
2022-12-14T19:38:55.769Z,27.92
2022-12-14T19:41:24.659Z,24.67
2022-12-14T19:43:52.439Z,24.15
2022-12-14T19:46:20.624Z,24.23
2022-12-14T19:48:51.059Z,25.67
2022-12-14T19:51:19.574Z,25.20
2022-12-14T19:53:47.726Z,19.65
2022-12-14T19:56:17.777Z,16.25
2022-12-14T19:58:48.540Z,16.05
2022-12-14T20:01:18.574Z,13.95
2022-12-14T20:03:46.676Z,15.18
2022-12-14T20:06:14.691Z,15.93
2022-12-14T20:08:42.447Z,14.18
2022-12-14T20:11:14.211Z,15.02
2022-12-14T20:13:45.130Z,16.48
2022-12-14T20:16:17.032Z,27.05
2022-12-14T20:18:45.302Z,31.52
2022-12-14T20:21:20.140Z,25.77
2022-12-14T20:23:50.068Z,22.48
2022-12-14T20:26:21.561Z,33.25
2022-12-14T20:28:54.020Z,31.90
2022-12-14T20:31:22.921Z,30.25
2022-12-14T20:33:52.966Z,24.48
2022-12-14T20:36:22.418Z,22.77
2022-12-14T20:38:54.921Z,18.77
2022-12-14T20:41:25.150Z,15.40
2022-12-14T20:43:53.170Z,15.25
2022-12-14T20:46:35.762Z,13.55
2022-12-14T20:49:07.207Z,14.35
2022-12-14T20:51:37.255Z,13.85
2022-12-14T20:54:07.651Z,12.90
2022-12-14T20:56:36.077Z,14.73
2022-12-14T20:59:05.172Z,12.70
2022-12-14T21:01:33.881Z,14.65
2022-12-14T21:04:02.060Z,14.05
2022-12-14T21:06:29.936Z,13.50
2022-12-14T21:09:09.685Z,12.07
2022-12-14T21:12:07.646Z,12.93
2022-12-14T21:14:42.698Z,15.02
2022-12-14T21:17:11.166Z,18.00
2022-12-14T21:19:40.116Z,16.55
2022-12-14T21:22:12.404Z,16.73
2022-12-14T21:27:31.809Z,14.77
2022-12-14T21:30:02.798Z,12.48
2022-12-14T21:32:31.095Z,13.52
2022-12-14T21:34:58.806Z,16.45
2022-12-14T21:37:26.652Z,16.10
2022-12-14T21:39:55.762Z,15.57
2022-12-14T21:42:24.998Z,22.23
2022-12-14T21:44:54.225Z,14.38
2022-12-14T21:47:25.141Z,13.63
2022-12-14T21:49:54.086Z,13.57
2022-12-14T21:52:24.540Z,15.35
2022-12-14T21:54:52.511Z,18.95
2022-12-14T21:57:42.425Z,21.50
2022-12-14T22:00:12.100Z,21.38
2022-12-14T22:02:41.940Z,17.83
2022-12-14T22:05:10.829Z,17.08
2022-12-14T22:07:38.667Z,15.70
2022-12-14T22:10:06.927Z,13.52
2022-12-14T22:12:34.701Z,13.50
2022-12-14T22:15:02.460Z,13.35
2022-12-14T22:17:30.293Z,13.20
2022-12-14T22:19:58.015Z,14.02
2022-12-14T22:22:25.846Z,13.38
2022-12-14T22:24:53.770Z,12.52
2022-12-14T22:27:21.625Z,13.50
2022-12-14T22:29:49.266Z,13.00
2022-12-14T22:32:17.195Z,12.93
2022-12-14T22:34:45.393Z,14.27
2022-12-14T22:37:19.085Z,12.07
2022-12-14T22:39:47.625Z,14.27
2022-12-14T22:42:16.802Z,18.27
2022-12-14T22:44:45.487Z,19.00
2022-12-14T22:47:13.408Z,16.17
2022-12-14T22:49:41.291Z,14.63
2022-12-14T22:52:10.701Z,19.77
2022-12-14T22:54:41.287Z,19.38
2022-12-14T22:57:19.781Z,21.40
2022-12-14T22:59:53.705Z,18.92
2022-12-14T23:02:21.929Z,16.08
2022-12-14T23:04:49.981Z,16.55
2022-12-14T23:07:18.606Z,14.38
2022-12-14T23:10:04.666Z,15.20
2022-12-14T23:12:50.792Z,13.05
2022-12-14T23:15:36.876Z,12.10
2022-12-14T23:18:24.878Z,11.32
2022-12-14T23:21:11.628Z,11.52
2022-12-14T23:23:59.816Z,13.43
2022-12-14T23:26:46.685Z,17.25
2022-12-14T23:29:33.311Z,14.67
2022-12-14T23:32:21.045Z,11.60
2022-12-14T23:37:53.990Z,10.80
2022-12-14T23:40:40.626Z,10.98
2022-12-14T23:43:32.317Z,9.32
2022-12-14T23:46:19.775Z,12.60
2022-12-14T23:49:10.430Z,10.00
2022-12-14T23:51:59.977Z,9.57
2022-12-14T23:54:46.466Z,8.90
2022-12-14T23:57:32.571Z,10.27
